Time;durP1;ratioP1;P1;durP2;ratioP2;P2;SDS_P1;SDS_P2;PMS_P1;PMS_P2;Temp;Humidity;BMP_temperature;BMP_pressure;BME280_temperature;BME280_humidity;BME280_pressure;Samples;Min_cycle;Max_cycle;Signal;HPM_P1;HPM_P2
2023/04/02 00:01:02;;;;;;;;;;;20.90;46.90;;;;;;1542616;76;1947;-60
2023/04/02 00:03:07;;;;;;;;;;;21.00;46.80;;;;;;1502464;77;1174;-61
2023/04/02 00:05:10;;;;;;;;;;;20.90;46.80;;;;;;1493429;77;1574;-61
2023/04/02 00:07:14;;;;;;;;;;;21.00;46.90;;;;;;1481485;79;1027;-61
2023/04/02 00:09:17;;;;;;;;;;;21.00;47.10;;;;;;1525752;76;1097;-61
2023/04/02 00:11:21;;;;;;;;;;;20.90;46.80;;;;;;1525759;77;702;-60
2023/04/02 00:13:33;;;;;;;;;;;21.00;46.90;;;;;;1525815;77;1161;-61
2023/04/02 00:15:36;;;;;;;;;;;21.00;46.90;;;;;;1520859;77;666;-61
2023/04/02 00:17:38;;;;;;;;;;;21.00;46.80;;;;;;1506873;77;734;-60
2023/04/02 00:19:44;;;;;;;;;;;21.00;46.80;;;;;;1512017;77;1949;-61
2023/04/02 00:21:46;;;;;;;;;;;21.00;46.60;;;;;;1511646;77;659;-61
2023/04/02 00:23:48;;;;;;;;;;;21.00;46.50;;;;;;1511861;77;1180;-61
2023/04/02 00:25:49;;;;;;;;;;;21.00;46.40;;;;;;1503405;77;691;-61
2023/04/02 00:27:51;;;;;;;;;;;21.00;46.40;;;;;;1508812;77;737;-61
2023/04/02 00:29:54;;;;;;;;;;;21.00;46.30;;;;;;1502557;78;729;-60
2023/04/02 00:31:56;;;;;;;;;;;21.00;46.30;;;;;;1520055;76;742;-60
2023/04/02 00:33:59;;;;;;;;;;;21.00;46.30;;;;;;1508969;78;1613;-61
2023/04/02 00:36:01;;;;;;;;;;;21.00;46.30;;;;;;1526483;78;1144;-60
2023/04/02 00:38:02;;;;;;;;;;;21.00;46.30;;;;;;1460637;80;1149;-60
2023/04/02 00:40:06;;;;;;;;;;;21.00;46.30;;;;;;1519344;77;1932;-60
2023/04/02 00:42:08;;;;;;;;;;;21.00;46.30;;;;;;1507155;78;1078;-60
2023/04/02 00:44:11;;;;;;;;;;;21.00;46.30;;;;;;1524554;78;1195;-60
2023/04/02 00:46:17;;;;;;;;;;;21.00;46.30;;;;;;1494167;77;780;-60
2023/04/02 00:48:23;;;;;;;;;;;20.90;46.30;;;;;;1518278;76;1677;-60
2023/04/02 00:50:32;;;;;;;;;;;21.00;46.30;;;;;;1546572;74;688;-60
2023/04/02 00:52:34;;;;;;;;;;;21.00;46.30;;;;;;1560795;74;743;-60
2023/04/02 00:54:41;;;;;;;;;;;21.00;46.30;;;;;;1546078;74;1120;-61
2023/04/02 00:56:44;;;;;;;;;;;20.90;46.20;;;;;;1551671;74;1006;-60
2023/04/02 00:58:47;;;;;;;;;;;21.00;46.20;;;;;;1555916;74;680;-59
2023/04/02 01:00:49;;;;;;;;;;;21.00;46.20;;;;;;1559850;74;1933;-62
2023/04/02 01:03:11;;;;;;;;;;;21.00;46.20;;;;;;1557554;74;1152;-61
2023/04/02 01:05:18;;;;;;;;;;;21.00;46.20;;;;;;1482271;79;1151;-62
2023/04/02 01:07:21;;;;;;;;;;;21.00;46.20;;;;;;1485327;79;724;-60
2023/04/02 01:09:37;;;;;;;;;;;21.00;46.30;;;;;;1468137;79;887;-60
2023/04/02 01:11:43;;;;;;;;;;;21.00;46.20;;;;;;1495309;77;1322;-59
2023/04/02 01:13:47;;;;;;;;;;;21.00;46.20;;;;;;1566964;74;1211;-61
2023/04/02 01:15:50;;;;;;;;;;;21.00;46.20;;;;;;1561137;74;1582;-61
2023/04/02 01:18:03;;;;;;;;;;;20.90;46.30;;;;;;1551117;74;787;-61
2023/04/02 01:20:07;;;;;;;;;;;21.00;46.30;;;;;;1460040;79;1910;-60
2023/04/02 01:22:13;;;;;;;;;;;20.90;46.40;;;;;;1548396;74;1078;-60
2023/04/02 01:24:15;;;;;;;;;;;21.00;46.40;;;;;;1560717;74;1183;-61
2023/04/02 01:26:35;;;;;;;;;;;21.00;46.40;;;;;;1555394;74;737;-60
2023/04/02 01:28:55;;;;;;;;;;;21.00;46.50;;;;;;1561572;74;680;-60
2023/04/02 01:30:57;;;;;;;;;;;20.90;46.70;;;;;;1555604;74;744;-60
2023/04/02 01:32:59;;;;;;;;;;;20.90;46.80;;;;;;1560277;74;1263;-61
2023/04/02 01:35:01;;;;;;;;;;;20.90;46.80;;;;;;1563068;74;809;-61
2023/04/02 01:37:21;;;;;;;;;;;20.90;46.80;;;;;;1559701;74;1060;-61
2023/04/02 01:39:25;;;;;;;;;;;20.90;46.80;;;;;;1552559;74;1112;-60
2023/04/02 01:41:29;;;;;;;;;;;20.90;46.70;;;;;;1556757;74;905;-61
2023/04/02 01:43:32;;;;;;;;;;;20.90;46.80;;;;;;1558407;74;1615;-61
2023/04/02 01:45:34;;;;;;;;;;;20.90;46.50;;;;;;1558082;74;735;-60
2023/04/02 01:47:36;;;;;;;;;;;21.00;46.50;;;;;;1545667;74;692;-61
2023/04/02 01:49:39;;;;;;;;;;;21.00;46.50;;;;;;1562546;74;676;-60
2023/04/02 01:51:42;;;;;;;;;;;21.00;46.50;;;;;;1557702;74;751;-60
2023/04/02 01:53:44;;;;;;;;;;;21.00;46.50;;;;;;1556121;74;1115;-61
2023/04/02 01:55:47;;;;;;;;;;;20.90;46.50;;;;;;1561336;74;701;-61
2023/04/02 01:57:50;;;;;;;;;;;21.00;46.60;;;;;;1549606;74;1545;-61
2023/04/02 01:59:51;;;;;;;;;;;20.90;46.50;;;;;;1549740;74;1916;-61
2023/04/02 02:01:58;;;;;;;;;;;20.90;46.60;;;;;;1551879;74;723;-61
2023/04/02 02:04:00;;;;;;;;;;;20.90;46.60;;;;;;1564912;74;1158;-61
2023/04/02 02:06:03;;;;;;;;;;;20.90;46.60;;;;;;1564325;74;712;-61
2023/04/02 02:08:05;;;;;;;;;;;21.00;46.60;;;;;;1561580;74;801;-62
2023/04/02 02:10:07;;;;;;;;;;;20.90;46.60;;;;;;1555394;74;670;-61
2023/04/02 02:12:12;;;;;;;;;;;20.90;46.60;;;;;;1566231;74;1585;-62
2023/04/02 02:14:23;;;;;;;;;;;20.90;46.70;;;;;;1556828;74;1185;-61
2023/04/02 02:16:28;;;;;;;;;;;21.00;46.60;;;;;;1542682;74;664;-61
2023/04/02 02:18:30;;;;;;;;;;;21.00;46.70;;;;;;1559672;74;744;-60
2023/04/02 02:20:32;;;;;;;;;;;21.00;46.70;;;;;;1554564;74;1969;-60
2023/04/02 02:22:35;;;;;;;;;;;20.90;46.70;;;;;;1553836;74;775;-61
2023/04/02 02:24:36;;;;;;;;;;;20.90;46.60;;;;;;1563984;74;1142;-61
2023/04/02 02:26:38;;;;;;;;;;;21.00;46.70;;;;;;1559775;74;1528;-61
2023/04/02 02:28:40;;;;;;;;;;;20.90;46.60;;;;;;1552153;74;747;-61
2023/04/02 02:30:49;;;;;;;;;;;21.00;46.60;;;;;;1559383;74;640;-61
2023/04/02 02:32:58;;;;;;;;;;;20.90;46.60;;;;;;1552001;74;1117;-61
2023/04/02 02:35:14;;;;;;;;;;;21.00;46.60;;;;;;1555460;74;653;-60
2023/04/02 02:37:18;;;;;;;;;;;20.90;46.60;;;;;;1543058;74;1093;-61
2023/04/02 02:39:27;;;;;;;;;;;20.90;46.70;;;;;;1556874;75;1588;-60
2023/04/02 02:41:37;;;;;;;;;;;20.90;46.80;;;;;;1551028;75;1939;-61
2023/04/02 02:43:39;;;;;;;;;;;20.90;46.80;;;;;;1557979;75;1158;-61
2023/04/02 02:45:41;;;;;;;;;;;21.00;46.70;;;;;;1538204;75;687;-61
2023/04/02 02:47:43;;;;;;;;;;;20.90;46.70;;;;;;1554179;75;674;-61
2023/04/02 02:49:49;;;;;;;;;;;20.90;46.60;;;;;;1537940;75;713;-61
2023/04/02 02:52:04;;;;;;;;;;;21.00;46.50;;;;;;1557142;75;988;-60
2023/04/02 02:54:06;;;;;;;;;;;20.90;46.50;;;;;;1555579;75;1602;-60
2023/04/02 02:56:08;;;;;;;;;;;20.90;46.40;;;;;;1552117;75;739;-61
2023/04/02 02:58:11;;;;;;;;;;;20.90;46.40;;;;;;1558106;75;725;-60
2023/04/02 03:00:14;;;;;;;;;;;20.90;46.50;;;;;;1550841;75;1932;-61
2023/04/02 03:02:16;;;;;;;;;;;21.00;46.50;;;;;;1547766;75;747;-60
2023/04/02 03:04:21;;;;;;;;;;;21.00;46.30;;;;;;1554148;75;1126;-60
2023/04/02 03:06:23;;;;;;;;;;;20.90;46.40;;;;;;1539167;75;677;-62
2023/04/02 03:08:27;;;;;;;;;;;21.00;46.30;;;;;;1562843;75;1417;-61
2023/04/02 03:10:33;;;;;;;;;;;21.00;46.30;;;;;;1541774;75;950;-60
2023/04/02 03:12:50;;;;;;;;;;;20.90;46.30;;;;;;1536234;75;1134;-61
2023/04/02 03:15:10;;;;;;;;;;;20.90;46.30;;;;;;1558978;75;756;-60
2023/04/02 03:17:22;;;;;;;;;;;20.90;46.30;;;;;;1550336;75;729;-61
2023/04/02 03:19:38;;;;;;;;;;;20.90;46.40;;;;;;1504106;78;983;-62
2023/04/02 03:21:41;;;;;;;;;;;20.90;46.40;;;;;;1541117;75;1947;-61
2023/04/02 03:23:44;;;;;;;;;;;20.90;46.40;;;;;;1554248;75;1149;-60
2023/04/02 03:25:50;;;;;;;;;;;20.90;46.50;;;;;;1551144;75;670;-61
2023/04/02 03:27:53;;;;;;;;;;;20.90;46.40;;;;;;1552736;75;909;-61
2023/04/02 03:30:14;;;;;;;;;;;20.90;46.50;;;;;;1561253;75;777;-61
2023/04/02 03:32:17;;;;;;;;;;;20.80;46.40;;;;;;1559085;75;765;-63
2023/04/02 03:34:24;;;;;;;;;;;20.80;46.40;;;;;;1549530;75;1160;-61
2023/04/02 03:36:37;;;;;;;;;;;20.90;46.50;;;;;;1539706;75;1565;-60
2023/04/02 03:38:43;;;;;;;;;;;20.80;46.40;;;;;;1553382;75;730;-60
2023/04/02 03:40:50;;;;;;;;;;;20.80;46.50;;;;;;1554647;75;1937;-60
2023/04/02 03:43:05;;;;;;;;;;;20.90;46.70;;;;;;1530645;75;1195;-60
2023/04/02 03:45:17;;;;;;;;;;;20.80;46.50;;;;;;1555471;75;663;-59
2023/04/02 03:47:21;;;;;;;;;;;20.80;46.50;;;;;;1515912;76;738;-60
2023/04/02 03:49:40;;;;;;;;;;;20.80;46.50;;;;;;1550196;75;1100;-61
2023/04/02 03:51:43;;;;;;;;;;;20.90;46.80;;;;;;1482032;79;1067;-61
2023/04/02 03:53:45;;;;;;;;;;;20.80;46.60;;;;;;1501508;75;1113;-62
2023/04/02 03:55:47;;;;;;;;;;;20.90;46.80;;;;;;1562342;75;686;-62
2023/04/02 03:58:07;;;;;;;;;;;20.80;46.70;;;;;;1557257;75;697;-62
2023/04/02 04:00:16;;;;;;;;;;;20.80;46.70;;;;;;1556861;75;1927;-62
2023/04/02 04:02:36;;;;;;;;;;;20.90;46.80;;;;;;1549122;75;691;-62
2023/04/02 04:04:39;;;;;;;;;;;20.80;46.70;;;;;;1557983;75;1608;-62
2023/04/02 04:06:41;;;;;;;;;;;20.90;46.90;;;;;;1535054;75;591;-61
2023/04/02 04:08:44;;;;;;;;;;;20.90;46.80;;;;;;1544729;75;677;-61
2023/04/02 04:10:48;;;;;;;;;;;20.80;46.70;;;;;;1539940;75;728;-62
2023/04/02 04:12:50;;;;;;;;;;;20.90;46.90;;;;;;1549250;75;1183;-64
2023/04/02 04:14:56;;;;;;;;;;;20.90;46.90;;;;;;1555132;75;728;-61
2023/04/02 04:17:00;;;;;;;;;;;20.80;46.80;;;;;;1526655;75;1215;-61
2023/04/02 04:19:07;;;;;;;;;;;20.90;46.90;;;;;;1561240;75;1510;-61
2023/04/02 04:21:14;;;;;;;;;;;20.80;46.70;;;;;;1554933;75;1946;-61
2023/04/02 04:23:24;;;;;;;;;;;20.80;46.60;;;;;;1560235;75;1145;-60
2023/04/02 04:25:32;;;;;;;;;;;20.90;46.80;;;;;;1559990;75;1086;-60
2023/04/02 04:27:41;;;;;;;;;;;20.90;46.80;;;;;;1549740;75;952;-61
2023/04/02 04:29:48;;;;;;;;;;;20.90;46.80;;;;;;1536132;75;671;-61
2023/04/02 04:31:53;;;;;;;;;;;20.90;46.80;;;;;;1534135;75;1314;-61
2023/04/02 04:33:54;;;;;;;;;;;20.90;46.80;;;;;;1546030;75;1199;-61
2023/04/02 04:35:56;;;;;;;;;;;20.90;46.80;;;;;;1559121;75;633;-62
2023/04/02 04:38:02;;;;;;;;;;;20.90;46.80;;;;;;1552602;75;1120;-61
2023/04/02 04:40:20;;;;;;;;;;;20.80;46.80;;;;;;1564133;75;1043;-61
2023/04/02 04:42:28;;;;;;;;;;;20.90;46.80;;;;;;1559239;75;1048;-61
2023/04/02 04:44:35;;;;;;;;;;;20.80;46.80;;;;;;1559299;75;1170;-61
2023/04/02 04:46:44;;;;;;;;;;;20.80;46.80;;;;;;1556675;75;1609;-61
2023/04/02 04:48:57;;;;;;;;;;;20.80;46.80;;;;;;1557926;75;686;-60
2023/04/02 04:51:00;;;;;;;;;;;20.90;47.00;;;;;;1557363;75;723;-61
2023/04/02 04:53:05;;;;;;;;;;;20.80;47.10;;;;;;1562249;75;1148;-63
2023/04/02 04:55:25;;;;;;;;;;;20.80;47.10;;;;;;1551942;75;696;-62
2023/04/02 04:57:29;;;;;;;;;;;20.80;47.10;;;;;;1556039;75;725;-67
2023/04/02 04:59:32;;;;;;;;;;;20.80;47.10;;;;;;1564174;75;605;-63
2023/04/02 05:01:38;;;;;;;;;;;20.80;47.20;;;;;;1552926;75;1946;-63
2023/04/02 05:03:58;;;;;;;;;;;20.80;47.20;;;;;;1559296;75;1106;-63
2023/04/02 05:06:01;;;;;;;;;;;20.80;47.10;;;;;;1541841;75;754;-63
2023/04/02 05:08:16;;;;;;;;;;;20.80;47.20;;;;;;1559251;75;787;-64
2023/04/02 05:10:23;;;;;;;;;;;20.90;47.30;;;;;;1535263;75;723;-63
2023/04/02 05:12:45;;;;;;;;;;;20.80;47.20;;;;;;1552669;75;1055;-63
2023/04/02 05:14:51;;;;;;;;;;;20.80;47.20;;;;;;1555801;75;1580;-63
2023/04/02 05:16:54;;;;;;;;;;;20.80;47.10;;;;;;1545698;75;688;-64
2023/04/02 05:18:58;;;;;;;;;;;20.80;47.10;;;;;;1541665;75;1029;-65
2023/04/02 05:21:05;;;;;;;;;;;20.80;47.10;;;;;;1560855;75;1970;-63
2023/04/02 05:23:18;;;;;;;;;;;20.80;47.10;;;;;;1556832;75;1149;-64
2023/04/02 05:25:22;;;;;;;;;;;20.90;47.20;;;;;;1550774;75;741;-63
2023/04/02 05:27:37;;;;;;;;;;;20.80;47.30;;;;;;1553436;75;726;-63
2023/04/02 05:29:40;;;;;;;;;;;20.80;47.20;;;;;;1484602;76;1389;-63
2023/04/02 05:31:43;;;;;;;;;;;20.80;47.30;;;;;;1544401;75;708;-64
2023/04/02 05:33:45;;;;;;;;;;;20.80;47.30;;;;;;1559216;75;1162;-63
2023/04/02 05:35:48;;;;;;;;;;;20.80;47.20;;;;;;1553334;75;735;-63
2023/04/02 05:37:50;;;;;;;;;;;20.90;47.30;;;;;;1561037;74;1118;-64
2023/04/02 05:39:55;;;;;;;;;;;20.90;47.20;;;;;;1563903;74;643;-68
2023/04/02 05:41:59;;;;;;;;;;;20.90;47.10;;;;;;1556524;74;1947;-63
2023/04/02 05:44:17;;;;;;;;;;;20.90;47.00;;;;;;1571462;74;1167;-64
2023/04/02 05:46:24;;;;;;;;;;;20.90;47.00;;;;;;1566154;74;1013;-63
2023/04/02 05:48:28;;;;;;;;;;;20.80;46.80;;;;;;1570105;74;778;-63
2023/04/02 05:50:31;;;;;;;;;;;20.80;46.70;;;;;;1558767;74;1068;-63
2023/04/02 05:52:35;;;;;;;;;;;20.90;46.80;;;;;;1575408;74;1131;-63
2023/04/02 05:54:41;;;;;;;;;;;20.90;46.70;;;;;;1556984;74;1124;-63
2023/04/02 05:56:43;;;;;;;;;;;20.90;46.70;;;;;;1567165;74;1570;-63
2023/04/02 05:58:50;;;;;;;;;;;20.90;46.70;;;;;;1567982;74;644;-63
2023/04/02 06:00:53;;;;;;;;;;;20.90;46.60;;;;;;1558851;74;1908;-63
2023/04/02 06:02:58;;;;;;;;;;;21.00;46.50;;;;;;1571249;74;1146;-63
2023/04/02 06:05:03;;;;;;;;;;;20.90;46.60;;;;;;1565260;74;714;-64
2023/04/02 06:07:06;;;;;;;;;;;20.90;46.50;;;;;;1561203;74;779;-63
2023/04/02 06:09:28;;;;;;;;;;;20.80;46.40;;;;;;1563813;74;784;-64
2023/04/02 06:11:31;;;;;;;;;;;20.90;46.50;;;;;;1570614;74;1580;-63
2023/04/02 06:13:33;;;;;;;;;;;20.90;46.50;;;;;;1556923;74;1140;-62
2023/04/02 06:15:35;;;;;;;;;;;20.90;46.50;;;;;;1568924;74;667;-62
2023/04/02 06:17:44;;;;;;;;;;;20.90;46.50;;;;;;1562804;74;757;-62
2023/04/02 06:19:46;;;;;;;;;;;20.90;46.40;;;;;;1550628;74;911;-63
2023/04/02 06:21:48;;;;;;;;;;;20.90;46.30;;;;;;1560529;74;1932;-62
2023/04/02 06:23:55;;;;;;;;;;;20.90;46.30;;;;;;1569699;74;1103;-62
2023/04/02 06:26:05;;;;;;;;;;;20.90;46.20;;;;;;1569746;74;1589;-62
2023/04/02 06:28:08;;;;;;;;;;;20.90;46.10;;;;;;1570473;74;768;-62
2023/04/02 06:30:12;;;;;;;;;;;20.90;46.00;;;;;;1564648;74;1156;-62
2023/04/02 06:32:14;;;;;;;;;;;20.90;46.10;;;;;;1551099;74;1148;-61
2023/04/02 06:34:17;;;;;;;;;;;20.90;46.10;;;;;;1560908;74;1167;-62
2023/04/02 06:36:19;;;;;;;;;;;20.80;46.10;;;;;;1551508;74;715;-61
2023/04/02 06:38:24;;;;;;;;;;;20.90;46.30;;;;;;1555232;74;1560;-61
2023/04/02 06:40:42;;;;;;;;;;;20.80;46.20;;;;;;1543618;75;662;-62
2023/04/02 06:42:44;;;;;;;;;;;20.90;46.20;;;;;;1552432;75;1935;-62
2023/04/02 06:44:46;;;;;;;;;;;20.80;46.00;;;;;;1559213;75;738;-62
2023/04/02 06:46:50;;;;;;;;;;;20.90;46.00;;;;;;1558896;75;702;-62
2023/04/02 06:48:52;;;;;;;;;;;20.90;45.90;;;;;;1558638;75;866;-62
2023/04/02 06:50:56;;;;;;;;;;;20.90;45.70;;;;;;1561855;75;777;-62
2023/04/02 06:52:58;;;;;;;;;;;20.90;45.70;;;;;;1548066;75;1327;-62
2023/04/02 06:55:00;;;;;;;;;;;20.90;45.60;;;;;;1536496;75;712;-62
2023/04/02 06:57:02;;;;;;;;;;;20.90;45.60;;;;;;1522459;76;766;-62
2023/04/02 06:59:06;;;;;;;;;;;20.90;45.60;;;;;;1557759;75;780;-62
2023/04/02 07:01:08;;;;;;;;;;;20.90;45.50;;;;;;1542217;75;1947;-62
2023/04/02 07:03:14;;;;;;;;;;;20.90;45.50;;;;;;1547914;75;1153;-62
2023/04/02 07:05:16;;;;;;;;;;;20.90;45.50;;;;;;1555204;76;703;-63
2023/04/02 07:07:18;;;;;;;;;;;20.80;45.30;;;;;;1546201;75;1527;-62
2023/04/02 07:09:20;;;;;;;;;;;20.90;45.50;;;;;;1561626;75;667;-62
2023/04/02 07:11:22;;;;;;;;;;;20.90;45.50;;;;;;1555561;75;722;-62
2023/04/02 07:13:24;;;;;;;;;;;20.80;45.30;;;;;;1556314;75;1102;-62
2023/04/02 07:15:26;;;;;;;;;;;20.80;45.30;;;;;;1548851;75;740;-62
2023/04/02 07:17:28;;;;;;;;;;;20.80;45.40;;;;;;1550310;75;759;-62
2023/04/02 07:19:30;;;;;;;;;;;20.80;45.30;;;;;;1550675;76;782;-62
2023/04/02 07:21:32;;;;;;;;;;;20.80;45.30;;;;;;1556821;75;1948;-62
2023/04/02 07:23:33;;;;;;;;;;;20.80;45.30;;;;;;1547502;75;1113;-66
2023/04/02 07:25:35;;;;;;;;;;;21.00;45.50;;;;;;1565356;75;715;-62
2023/04/02 07:27:37;;;;;;;;;;;20.80;45.30;;;;;;1544866;75;733;-62
2023/04/02 07:29:41;;;;;;;;;;;20.80;45.30;;;;;;1563883;75;736;-62
2023/04/02 07:31:43;;;;;;;;;;;20.80;45.30;;;;;;1548480;75;1132;-62
2023/04/02 07:33:44;;;;;;;;;;;20.70;45.30;;;;;;1553180;75;1170;-62
2023/04/02 07:35:46;;;;;;;;;;;20.70;45.40;;;;;;1540400;75;1596;-62
2023/04/02 07:37:48;;;;;;;;;;;20.70;45.40;;;;;;1555655;75;735;-62
2023/04/02 07:39:50;;;;;;;;;;;20.80;45.30;;;;;;1560542;75;1116;-62
2023/04/02 07:41:54;;;;;;;;;;;20.70;45.40;;;;;;1569548;75;1951;-62
2023/04/02 07:43:56;;;;;;;;;;;20.70;45.40;;;;;;1533260;75;1161;-62
2023/04/02 07:45:58;;;;;;;;;;;20.80;45.40;;;;;;1543732;75;752;-62
2023/04/02 07:48:10;;;;;;;;;;;20.70;45.50;;;;;;1559224;75;721;-62
2023/04/02 07:50:12;;;;;;;;;;;20.70;45.40;;;;;;1557880;75;1539;-62
2023/04/02 07:52:14;;;;;;;;;;;20.60;45.30;;;;;;1563477;75;768;-62
2023/04/02 07:54:16;;;;;;;;;;;20.70;45.50;;;;;;1557317;75;1126;-62
2023/04/02 07:56:18;;;;;;;;;;;20.70;45.50;;;;;;1560321;75;725;-62
2023/04/02 07:58:20;;;;;;;;;;;20.70;45.50;;;;;;1550910;75;671;-62
2023/04/02 08:00:22;;;;;;;;;;;20.70;45.50;;;;;;1560634;75;679;-62
2023/04/02 08:02:24;;;;;;;;;;;20.70;45.50;;;;;;1564136;75;1928;-62
2023/04/02 08:04:26;;;;;;;;;;;20.70;45.50;;;;;;1552058;75;1561;-63
2023/04/02 08:06:28;;;;;;;;;;;20.60;45.30;;;;;;1561642;75;702;-62
2023/04/02 08:08:30;;;;;;;;;;;20.70;45.50;;;;;;1553717;75;677;-62
2023/04/02 08:10:32;;;;;;;;;;;20.60;45.40;;;;;;1553149;75;713;-62
2023/04/02 08:12:34;;;;;;;;;;;20.70;45.50;;;;;;1563987;75;732;-62
2023/04/02 08:14:36;;;;;;;;;;;20.60;45.40;;;;;;1559996;75;1111;-62
2023/04/02 08:16:50;;;;;;;;;;;20.60;45.40;;;;;;1544476;75;1548;-62
2023/04/02 08:18:52;;;;;;;;;;;20.60;45.40;;;;;;1551980;76;765;-62
2023/04/02 08:20:54;;;;;;;;;;;20.60;45.40;;;;;;1553385;75;711;-62
2023/04/02 08:22:57;;;;;;;;;;;20.60;45.40;;;;;;1545458;75;1928;-62
2023/04/02 08:24:59;;;;;;;;;;;20.60;45.50;;;;;;1548317;75;745;-62
2023/04/02 08:27:01;;;;;;;;;;;20.60;45.50;;;;;;1561495;75;657;-68
2023/04/02 08:29:03;;;;;;;;;;;20.60;45.50;;;;;;1543010;75;644;-62
2023/04/02 08:31:07;;;;;;;;;;;20.60;45.50;;;;;;1559622;75;1596;-62
2023/04/02 08:33:08;;;;;;;;;;;20.50;45.50;;;;;;1550146;75;1186;-62
2023/04/02 08:35:10;;;;;;;;;;;20.60;45.50;;;;;;1548254;75;712;-62
2023/04/02 08:37:12;;;;;;;;;;;20.60;45.50;;;;;;1536971;75;738;-62
2023/04/02 08:39:14;;;;;;;;;;;20.50;45.50;;;;;;1556665;75;1122;-62
2023/04/02 08:41:18;;;;;;;;;;;20.50;45.50;;;;;;1575654;74;569;-62
2023/04/02 08:43:39;;;;;;;;;;;20.60;45.50;;;;;;1562925;75;1944;-62
2023/04/02 08:45:43;;;;;;;;;;;20.50;45.50;;;;;;1550561;74;1540;-61
2023/04/02 08:47:46;;;;;;;;;;;20.60;45.50;;;;;;1562004;74;704;-61
2023/04/02 08:49:52;;;;;;;;;;;20.50;45.60;;;;;;1568158;74;863;-59
2023/04/02 08:51:54;;;;;;;;;;;20.50;45.60;;;;;;1563371;74;1086;-59
2023/04/02 08:53:57;;;;;;;;;;;20.50;45.60;;;;;;1557402;74;1136;-59
2023/04/02 08:56:07;;;;;;;;;;;20.50;45.60;;;;;;1559725;74;729;-61
2023/04/02 08:58:26;;;;;;;;;;;20.50;45.60;;;;;;1556963;74;708;-61
2023/04/02 09:00:36;;;;;;;;;;;20.50;45.60;;;;;;1558408;74;1647;-61
2023/04/02 09:02:40;;;;;;;;;;;20.60;45.60;;;;;;1560435;74;1912;-61
2023/04/02 09:04:41;;;;;;;;;;;20.50;45.60;;;;;;1566901;74;1033;-61
2023/04/02 09:06:43;;;;;;;;;;;20.50;45.70;;;;;;1567625;74;700;-61
2023/04/02 09:08:46;;;;;;;;;;;20.50;45.60;;;;;;1560186;74;708;-61
2023/04/02 09:10:49;;;;;;;;;;;20.50;45.60;;;;;;1565116;74;665;-61
2023/04/02 09:12:52;;;;;;;;;;;20.50;45.70;;;;;;1551050;74;1133;-61
2023/04/02 09:15:11;;;;;;;;;;;20.50;45.70;;;;;;1566884;74;706;-61
2023/04/02 09:17:17;;;;;;;;;;;20.50;45.60;;;;;;1561295;74;773;-61
2023/04/02 09:19:20;;;;;;;;;;;20.40;45.60;;;;;;1560138;74;728;-61
2023/04/02 09:21:27;;;;;;;;;;;20.50;45.70;;;;;;1561979;74;710;-61
2023/04/02 09:23:27;;;;;;;;;;;20.50;45.70;;;;;;1559131;74;1957;-65
2023/04/02 09:25:34;;;;;;;;;;;20.40;45.60;;;;;;1564359;74;771;-61
2023/04/02 09:27:33;;;;;;;;;;;20.40;45.60;;;;;;1557429;74;1568;-61
2023/04/02 09:29:43;;;;;;;;;;;20.40;45.60;;;;;;1564245;74;697;-62
2023/04/02 09:31:46;;;;;;;;;;;20.40;45.60;;;;;;1553247;74;979;-62
2023/04/02 09:33:49;;;;;;;;;;;20.50;45.70;;;;;;1552374;74;1153;-61
2023/04/02 09:35:53;;;;;;;;;;;20.50;45.70;;;;;;1559118;74;758;-61
2023/04/02 09:38:08;;;;;;;;;;;20.50;45.70;;;;;;1558705;74;774;-61
2023/04/02 09:40:17;;;;;;;;;;;20.50;45.70;;;;;;1559876;74;1109;-61
2023/04/02 09:42:30;;;;;;;;;;;20.40;45.60;;;;;;1552239;75;1923;-61
2023/04/02 09:44:32;;;;;;;;;;;20.40;45.70;;;;;;1542574;75;1159;-61
2023/04/02 09:46:34;;;;;;;;;;;20.40;45.60;;;;;;1553459;75;733;-61
2023/04/02 09:48:42;;;;;;;;;;;20.40;45.60;;;;;;1561710;75;683;-61
2023/04/02 09:50:44;;;;;;;;;;;20.40;45.60;;;;;;1562137;75;976;-66
2023/04/02 09:52:46;;;;;;;;;;;20.40;45.60;;;;;;1543630;75;1081;-61
2023/04/02 09:54:49;;;;;;;;;;;20.40;45.60;;;;;;1562793;75;701;-61
2023/04/02 09:57:01;;;;;;;;;;;20.40;45.60;;;;;;1545853;75;1580;-61
2023/04/02 09:59:07;;;;;;;;;;;20.50;45.70;;;;;;1556996;75;760;-61
2023/04/02 10:01:10;;;;;;;;;;;20.40;45.60;;;;;;1552151;75;1100;-61
2023/04/02 10:03:23;;;;;;;;;;;20.40;45.60;;;;;;1560372;75;1942;-61
2023/04/02 10:05:25;;;;;;;;;;;20.40;45.60;;;;;;1554596;75;684;-61
2023/04/02 10:07:35;;;;;;;;;;;20.40;45.60;;;;;;1568177;75;755;-61
2023/04/02 10:09:37;;;;;;;;;;;20.40;45.60;;;;;;1559267;75;1541;-61
2023/04/02 10:11:39;;;;;;;;;;;20.40;45.60;;;;;;1547567;75;722;-61
2023/04/02 10:13:58;;;;;;;;;;;20.40;45.60;;;;;;1553848;75;1136;-61
2023/04/02 10:16:01;;;;;;;;;;;20.40;45.60;;;;;;1558681;75;1041;-61
2023/04/02 10:18:05;;;;;;;;;;;20.40;45.60;;;;;;1559240;75;716;-61
2023/04/02 10:20:10;;;;;;;;;;;20.40;45.60;;;;;;1550249;75;764;-61
2023/04/02 10:22:13;;;;;;;;;;;20.30;45.60;;;;;;1556212;75;977;-61
2023/04/02 10:24:16;;;;;;;;;;;20.40;45.60;;;;;;1550203;75;1630;-61
2023/04/02 10:26:26;;;;;;;;;;;20.40;45.60;;;;;;1541951;75;741;-61
2023/04/02 10:28:29;;;;;;;;;;;20.40;45.60;;;;;;1547375;75;713;-60
2023/04/02 10:30:45;;;;;;;;;;;20.40;45.60;;;;;;1558271;75;1053;-60
2023/04/02 10:33:00;;;;;;;;;;;20.40;45.60;;;;;;1541708;75;1157;-59
2023/04/02 10:35:07;;;;;;;;;;;20.40;45.50;;;;;;1556345;75;711;-60
2023/04/02 10:37:14;;;;;;;;;;;20.40;45.60;;;;;;1558179;75;1159;-60
2023/04/02 10:39:17;;;;;;;;;;;20.40;45.60;;;;;;1546727;75;700;-60
2023/04/02 10:41:30;;;;;;;;;;;20.40;45.60;;;;;;1551683;75;1168;-59
2023/04/02 10:43:50;;;;;;;;;;;20.30;45.60;;;;;;1558554;74;1955;-59
2023/04/02 10:45:56;;;;;;;;;;;20.40;45.60;;;;;;1554824;74;882;-60
2023/04/02 10:48:05;;;;;;;;;;;20.40;45.60;;;;;;1565222;74;751;-60
2023/04/02 10:50:15;;;;;;;;;;;20.40;45.60;;;;;;1563364;74;666;-60
2023/04/02 10:52:20;;;;;;;;;;;20.30;45.60;;;;;;1563377;74;1610;-59
2023/04/02 10:54:23;;;;;;;;;;;20.30;45.60;;;;;;1558984;74;1144;-59
2023/04/02 10:56:25;;;;;;;;;;;20.40;45.60;;;;;;1562885;74;1264;-60
2023/04/02 10:58:28;;;;;;;;;;;20.30;45.60;;;;;;1559236;74;725;-61
2023/04/02 11:00:31;;;;;;;;;;;20.30;45.60;;;;;;1556608;74;722;-59
2023/04/02 11:02:34;;;;;;;;;;;20.40;45.60;;;;;;1560805;75;1950;-59
2023/04/02 11:04:43;;;;;;;;;;;20.40;45.60;;;;;;1540384;74;1173;-59
2023/04/02 11:06:47;;;;;;;;;;;20.30;45.50;;;;;;1555250;74;1511;-60
2023/04/02 11:08:50;;;;;;;;;;;20.30;45.60;;;;;;1550562;74;1024;-59
2023/04/02 11:10:53;;;;;;;;;;;20.40;45.50;;;;;;1557620;74;677;-59
2023/04/02 11:12:57;;;;;;;;;;;20.30;45.50;;;;;;1559983;74;1227;-60
2023/04/02 11:14:59;;;;;;;;;;;20.30;45.50;;;;;;1555180;75;1023;-60
2023/04/02 11:17:02;;;;;;;;;;;20.30;45.50;;;;;;1553577;74;764;-60
2023/04/02 11:19:17;;;;;;;;;;;20.30;45.50;;;;;;1567323;74;963;-59
2023/04/02 11:21:38;;;;;;;;;;;20.40;45.50;;;;;;1564759;74;1678;-60
2023/04/02 11:23:41;;;;;;;;;;;20.30;45.50;;;;;;1556964;74;1926;-59
2023/04/02 11:25:43;;;;;;;;;;;20.30;45.50;;;;;;1576208;74;991;-60
2023/04/02 11:27:45;;;;;;;;;;;20.30;45.60;;;;;;1551235;74;717;-60
2023/04/02 11:30:04;;;;;;;;;;;20.30;45.60;;;;;;1560697;74;698;-60
2023/04/02 11:32:16;;;;;;;;;;;20.30;45.50;;;;;;1565167;74;707;-60
2023/04/02 11:34:36;;;;;;;;;;;20.30;45.60;;;;;;1562709;74;1624;-60
2023/04/02 11:36:52;;;;;;;;;;;20.30;45.50;;;;;;1565735;74;702;-60
2023/04/02 11:38:54;;;;;;;;;;;20.30;45.70;;;;;;1552490;74;623;-60
2023/04/02 11:40:57;;;;;;;;;;;20.30;45.60;;;;;;1562675;74;1083;-60
2023/04/02 11:43:00;;;;;;;;;;;20.30;45.60;;;;;;1542910;74;1915;-60
2023/04/02 11:45:22;;;;;;;;;;;20.30;45.60;;;;;;1561483;74;1003;-61
2023/04/02 11:47:25;;;;;;;;;;;20.30;45.50;;;;;;1553567;74;753;-60
2023/04/02 11:49:38;;;;;;;;;;;20.30;45.60;;;;;;1556084;74;1662;-62
2023/04/02 11:51:38;;;;;;;;;;;20.30;45.50;;;;;;1562265;74;1141;-59
2023/04/02 11:53:41;;;;;;;;;;;20.30;45.60;;;;;;1568812;74;1160;-61
2023/04/02 11:55:44;;;;;;;;;;;20.30;45.60;;;;;;1570288;74;714;-60
2023/04/02 11:57:51;;;;;;;;;;;20.30;45.60;;;;;;1566086;74;993;-60
2023/04/02 12:00:06;;;;;;;;;;;20.30;45.50;;;;;;1566110;74;890;-61
2023/04/02 12:02:20;;;;;;;;;;;20.30;45.50;;;;;;1548156;75;1369;-60
2023/04/02 12:04:40;;;;;;;;;;;20.30;45.50;;;;;;1557411;74;1946;-60
2023/04/02 12:07:02;;;;;;;;;;;20.20;45.40;;;;;;1565223;74;717;-59
2023/04/02 12:09:06;;;;;;;;;;;20.30;45.60;;;;;;1562094;74;1182;-61
2023/04/02 12:11:08;;;;;;;;;;;20.30;45.60;;;;;;1538666;74;1047;-60
2023/04/02 12:13:12;;;;;;;;;;;20.20;45.60;;;;;;1567105;74;1137;-60
2023/04/02 12:15:31;;;;;;;;;;;20.20;45.80;;;;;;1547047;74;1057;-60
2023/04/02 12:17:36;;;;;;;;;;;20.20;46.00;;;;;;1557326;74;1673;-60
2023/04/02 12:19:38;;;;;;;;;;;20.00;46.10;;;;;;1548300;74;712;-60
2023/04/02 12:21:40;;;;;;;;;;;20.00;46.30;;;;;;1563079;74;714;-60
2023/04/02 12:23:44;;;;;;;;;;;20.00;46.50;;;;;;1536041;76;1956;-60
2023/04/02 12:25:47;;;;;;;;;;;20.00;46.60;;;;;;1563809;74;762;-60
2023/04/02 12:28:08;;;;;;;;;;;20.00;46.70;;;;;;1545230;74;1120;-59